sensor_id;sensor_type;location;lat;lon;timestamp;pressure;altitude;pressure_sealevel;temperature;humidity
32735;BME280;19112;51.076;3.706;2024-01-30T00:02:17;102408.03;;;13.74;69.91
32735;BME280;19112;51.076;3.706;2024-01-30T00:04:43;102238.50;;;12.83;69.71
32735;BME280;19112;51.076;3.706;2024-01-30T00:07:10;102161.97;;;12.05;69.34
32735;BME280;19112;51.076;3.706;2024-01-30T00:09:38;101827.06;;;10.07;69.26
32735;BME280;19112;51.076;3.706;2024-01-30T00:12:06;102142.50;;;12.39;69.61
32735;BME280;19112;51.076;3.706;2024-01-30T00:14:32;101984.69;;;11.31;69.11
32735;BME280;19112;51.076;3.706;2024-01-30T00:16:58;101879.19;;;10.52;69.32
32735;BME280;19112;51.076;3.706;2024-01-30T00:19:24;101453.84;;;8.48;68.83
32735;BME280;19112;51.076;3.706;2024-01-30T00:21:50;102084.06;;;12.09;69.34
32735;BME280;19112;51.076;3.706;2024-01-30T00:24:16;101558.50;;;9.16;69.01
32735;BME280;19112;51.076;3.706;2024-01-30T00:26:41;102121.50;;;12.03;69.10
32735;BME280;19112;51.076;3.706;2024-01-30T00:29:08;101754.19;;;10.02;69.40
32735;BME280;19112;51.076;3.706;2024-01-30T00:31:35;102408.78;;;13.72;70.04
32735;BME280;19112;51.076;3.706;2024-01-30T00:34:01;102319.19;;;12.99;69.84
32735;BME280;19112;51.076;3.706;2024-01-30T00:36:28;101792.69;;;10.37;69.47
32735;BME280;19112;51.076;3.706;2024-01-30T00:38:55;102113.03;;;12.28;69.89
32735;BME280;19112;51.076;3.706;2024-01-30T00:41:24;102313.00;;;12.79;70.11
32735;BME280;19112;51.076;3.706;2024-01-30T00:43:50;101813.94;;;10.07;69.84
32735;BME280;19112;51.076;3.706;2024-01-30T00:46:16;102376.22;;;13.71;69.87
32735;BME280;19112;51.076;3.706;2024-01-30T00:48:42;102300.50;;;13.31;69.60
32735;BME280;19112;51.076;3.706;2024-01-30T00:51:08;101348.25;;;8.13;69.18
32735;BME280;19112;51.076;3.706;2024-01-30T00:53:34;102186.88;;;12.88;69.32
32735;BME280;19112;51.076;3.706;2024-01-30T00:56:00;101771.53;;;10.52;69.21
32735;BME280;19112;51.076;3.706;2024-01-30T00:58:27;101862.22;;;10.81;69.24
32735;BME280;19112;51.076;3.706;2024-01-30T01:00:52;102123.59;;;12.48;69.28
32735;BME280;19112;51.076;3.706;2024-01-30T01:03:18;102139.38;;;12.67;69.16
32735;BME280;19112;51.076;3.706;2024-01-30T01:05:45;102153.00;;;12.57;69.21
32735;BME280;19112;51.076;3.706;2024-01-30T01:08:11;102402.03;;;13.78;69.19
32735;BME280;19112;51.076;3.706;2024-01-30T01:10:37;101717.16;;;9.95;68.85
32735;BME280;19112;51.076;3.706;2024-01-30T01:13:03;101819.31;;;10.80;69.03
32735;BME280;19112;51.076;3.706;2024-01-30T01:15:30;102061.69;;;12.38;69.01
32735;BME280;19112;51.076;3.706;2024-01-30T01:17:57;102099.59;;;12.61;69.17
32735;BME280;19112;51.076;3.706;2024-01-30T01:20:23;101678.16;;;10.21;68.82
32735;BME280;19112;51.076;3.706;2024-01-30T01:22:49;101994.59;;;11.91;69.00
32735;BME280;19112;51.076;3.706;2024-01-30T01:25:15;102131.56;;;12.69;69.29
32735;BME280;19112;51.076;3.706;2024-01-30T01:27:41;102027.47;;;11.82;69.24
32735;BME280;19112;51.076;3.706;2024-01-30T01:30:14;101970.88;;;11.72;69.16
32735;BME280;19112;51.076;3.706;2024-01-30T01:32:49;101694.44;;;10.14;69.28
32735;BME280;19112;51.076;3.706;2024-01-30T01:35:27;101985.78;;;11.53;69.54
32735;BME280;19112;51.076;3.706;2024-01-30T01:37:54;102066.75;;;11.96;69.83
32735;BME280;19112;51.076;3.706;2024-01-30T01:40:27;102181.41;;;12.64;69.80
32735;BME280;19112;51.076;3.706;2024-01-30T01:42:55;101442.84;;;8.55;69.63
32735;BME280;19112;51.076;3.706;2024-01-30T01:45:21;102080.09;;;11.82;70.18
32735;BME280;19112;51.076;3.706;2024-01-30T01:47:51;102266.78;;;13.05;70.53
32735;BME280;19112;51.076;3.706;2024-01-30T01:50:19;102325.94;;;13.49;70.32
32735;BME280;19112;51.076;3.706;2024-01-30T01:52:49;102229.00;;;12.87;70.12
32735;BME280;19112;51.076;3.706;2024-01-30T01:55:17;102213.53;;;12.75;70.30
32735;BME280;19112;51.076;3.706;2024-01-30T01:57:47;101901.50;;;10.95;69.86
32735;BME280;19112;51.076;3.706;2024-01-30T02:00:13;101762.63;;;10.48;70.05
32735;BME280;19112;51.076;3.706;2024-01-30T02:02:41;101583.25;;;9.57;70.22
32735;BME280;19112;51.076;3.706;2024-01-30T02:05:10;101557.66;;;8.99;70.12
32735;BME280;19112;51.076;3.706;2024-01-30T02:07:36;102192.72;;;12.81;70.09
32735;BME280;19112;51.076;3.706;2024-01-30T02:10:03;102024.75;;;12.17;70.17
32735;BME280;19112;51.076;3.706;2024-01-30T02:12:32;101623.03;;;9.84;70.02
32735;BME280;19112;51.076;3.706;2024-01-30T02:14:58;102315.44;;;13.70;70.60
32735;BME280;19112;51.076;3.706;2024-01-30T02:17:24;101947.50;;;11.23;70.41
32735;BME280;19112;51.076;3.706;2024-01-30T02:19:49;102086.06;;;12.34;70.05
32735;BME280;19112;51.076;3.706;2024-01-30T02:22:15;102291.38;;;13.83;70.00
32735;BME280;19112;51.076;3.706;2024-01-30T02:24:41;101781.34;;;10.73;69.76
32735;BME280;19112;51.076;3.706;2024-01-30T02:27:07;102056.94;;;12.50;69.62
32735;BME280;19112;51.076;3.706;2024-01-30T02:29:33;101627.16;;;9.79;69.57
32735;BME280;19112;51.076;3.706;2024-01-30T02:31:59;101873.72;;;10.65;69.55
32735;BME280;19112;51.076;3.706;2024-01-30T02:34:25;101605.72;;;9.87;69.77
32735;BME280;19112;51.076;3.706;2024-01-30T02:36:51;101953.38;;;11.54;69.72
32735;BME280;19112;51.076;3.706;2024-01-30T02:39:17;102011.63;;;12.19;69.95
32735;BME280;19112;51.076;3.706;2024-01-30T02:41:44;101480.38;;;9.25;69.76
32735;BME280;19112;51.076;3.706;2024-01-30T02:44:10;101816.56;;;11.14;69.72
32735;BME280;19112;51.076;3.706;2024-01-30T02:46:36;101606.69;;;9.89;69.89
32735;BME280;19112;51.076;3.706;2024-01-30T02:49:02;101942.00;;;11.73;69.68
32735;BME280;19112;51.076;3.706;2024-01-30T02:51:29;101754.50;;;10.43;69.70
32735;BME280;19112;51.076;3.706;2024-01-30T02:53:55;101851.72;;;10.81;69.99
32735;BME280;19112;51.076;3.706;2024-01-30T02:56:22;101745.38;;;10.35;69.65
32735;BME280;19112;51.076;3.706;2024-01-30T02:58:48;101783.38;;;10.79;69.69
32735;BME280;19112;51.076;3.706;2024-01-30T03:01:14;101761.28;;;10.56;69.73
32735;BME280;19112;51.076;3.706;2024-01-30T03:03:39;102204.53;;;13.28;69.89
32735;BME280;19112;51.076;3.706;2024-01-30T03:06:06;101879.34;;;11.45;69.57
32735;BME280;19112;51.076;3.706;2024-01-30T03:08:33;101601.44;;;9.89;69.33
32735;BME280;19112;51.076;3.706;2024-01-30T03:11:00;101761.72;;;10.47;69.46
32735;BME280;19112;51.076;3.706;2024-01-30T03:13:26;102436.88;;;14.29;69.83
32735;BME280;19112;51.076;3.706;2024-01-30T03:15:52;102128.09;;;12.89;69.95
32735;BME280;19112;51.076;3.706;2024-01-30T03:18:18;101477.47;;;9.01;69.40
32735;BME280;19112;51.076;3.706;2024-01-30T03:20:44;102239.06;;;13.53;70.02
32735;BME280;19112;51.076;3.706;2024-01-30T03:23:10;101807.69;;;11.12;69.66
32735;BME280;19112;51.076;3.706;2024-01-30T03:25:36;101706.38;;;10.43;69.71
32735;BME280;19112;51.076;3.706;2024-01-30T03:28:01;102231.69;;;13.66;69.85
32735;BME280;19112;51.076;3.706;2024-01-30T03:30:27;101687.69;;;10.55;69.66
32735;BME280;19112;51.076;3.706;2024-01-30T03:32:54;101604.72;;;9.85;69.40
32735;BME280;19112;51.076;3.706;2024-01-30T03:35:20;102031.91;;;12.20;69.48
32735;BME280;19112;51.076;3.706;2024-01-30T03:37:46;102360.22;;;14.28;69.98
32735;BME280;19112;51.076;3.706;2024-01-30T03:40:12;102038.72;;;12.36;69.88
32735;BME280;19112;51.076;3.706;2024-01-30T03:42:38;102343.03;;;13.97;70.11
32735;BME280;19112;51.076;3.706;2024-01-30T03:45:05;102320.09;;;13.75;69.83
32735;BME280;19112;51.076;3.706;2024-01-30T03:47:30;102034.25;;;12.33;69.70
32735;BME280;19112;51.076;3.706;2024-01-30T03:49:56;102395.69;;;14.13;70.02
32735;BME280;19112;51.076;3.706;2024-01-30T03:52:22;101832.94;;;10.91;69.96
32735;BME280;19112;51.076;3.706;2024-01-30T03:54:48;101947.88;;;11.31;70.47
32735;BME280;19112;51.076;3.706;2024-01-30T03:57:15;101633.81;;;10.08;69.83
32735;BME280;19112;51.076;3.706;2024-01-30T03:59:44;102115.53;;;12.25;70.10
32735;BME280;19112;51.076;3.706;2024-01-30T04:02:11;102292.75;;;13.34;70.84
32735;BME280;19112;51.076;3.706;2024-01-30T04:04:37;101647.97;;;9.93;70.62
32735;BME280;19112;51.076;3.706;2024-01-30T04:07:03;102187.38;;;12.99;71.14
32735;BME280;19112;51.076;3.706;2024-01-30T04:09:29;102012.34;;;11.77;71.20
32735;BME280;19112;51.076;3.706;2024-01-30T04:11:55;102110.75;;;12.36;71.63
32735;BME280;19112;51.076;3.706;2024-01-30T04:14:21;102345.50;;;13.73;71.60
32735;BME280;19112;51.076;3.706;2024-01-30T04:16:46;101848.28;;;10.82;71.94
32735;BME280;19112;51.076;3.706;2024-01-30T04:19:12;101982.59;;;11.61;72.27
32735;BME280;19112;51.076;3.706;2024-01-30T04:21:38;102262.53;;;13.08;72.27
32735;BME280;19112;51.076;3.706;2024-01-30T04:24:05;102277.81;;;13.35;72.19
32735;BME280;19112;51.076;3.706;2024-01-30T04:26:31;102154.53;;;12.34;72.09
32735;BME280;19112;51.076;3.706;2024-01-30T04:28:56;102022.41;;;11.86;72.31
32735;BME280;19112;51.076;3.706;2024-01-30T04:31:22;101537.59;;;9.00;71.76
32735;BME280;19112;51.076;3.706;2024-01-30T04:33:48;102394.63;;;13.70;72.39
32735;BME280;19112;51.076;3.706;2024-01-30T04:36:14;101854.97;;;10.93;72.01
32735;BME280;19112;51.076;3.706;2024-01-30T04:38:40;101570.16;;;9.39;71.98
32735;BME280;19112;51.076;3.706;2024-01-30T04:41:06;101824.66;;;10.82;71.94
32735;BME280;19112;51.076;3.706;2024-01-30T04:43:32;101584.03;;;9.54;71.64
32735;BME280;19112;51.076;3.706;2024-01-30T04:46:01;102293.22;;;13.65;71.83
32735;BME280;19112;51.076;3.706;2024-01-30T04:48:27;102018.66;;;11.99;71.70
32735;BME280;19112;51.076;3.706;2024-01-30T04:50:53;102157.78;;;12.85;71.86
32735;BME280;19112;51.076;3.706;2024-01-30T04:53:19;102166.78;;;12.90;72.12
32735;BME280;19112;51.076;3.706;2024-01-30T04:55:45;101578.69;;;9.53;71.57
32735;BME280;19112;51.076;3.706;2024-01-30T04:58:10;102171.22;;;12.52;72.18
32735;BME280;19112;51.076;3.706;2024-01-30T05:00:36;101614.50;;;9.70;71.94
32735;BME280;19112;51.076;3.706;2024-01-30T05:03:02;102369.06;;;13.49;72.49
32735;BME280;19112;51.076;3.706;2024-01-30T05:05:28;101674.66;;;9.67;71.98
32735;BME280;19112;51.076;3.706;2024-01-30T05:07:54;102213.00;;;13.01;72.26
32735;BME280;19112;51.076;3.706;2024-01-30T05:10:20;101626.28;;;9.26;71.66
32735;BME280;19112;51.076;3.706;2024-01-30T05:12:45;101573.00;;;9.43;72.13
32735;BME280;19112;51.076;3.706;2024-01-30T05:15:14;101586.47;;;9.33;71.84
32735;BME280;19112;51.076;3.706;2024-01-30T05:17:40;101894.25;;;11.27;71.96
32735;BME280;19112;51.076;3.706;2024-01-30T05:20:06;101561.53;;;9.41;71.96
32735;BME280;19112;51.076;3.706;2024-01-30T05:22:33;101643.28;;;9.86;71.92
32735;BME280;19112;51.076;3.706;2024-01-30T05:24:58;101476.84;;;8.89;71.83
32735;BME280;19112;51.076;3.706;2024-01-30T05:27:24;102377.59;;;13.82;72.48
32735;BME280;19112;51.076;3.706;2024-01-30T05:29:50;101635.78;;;9.76;72.17
32735;BME280;19112;51.076;3.706;2024-01-30T05:32:17;102121.13;;;12.33;72.27
32735;BME280;19112;51.076;3.706;2024-01-30T05:34:45;102039.09;;;12.04;72.05
32735;BME280;19112;51.076;3.706;2024-01-30T05:37:12;101948.06;;;11.53;72.09
32735;BME280;19112;51.076;3.706;2024-01-30T05:39:42;102219.75;;;12.77;71.86
32735;BME280;19112;51.076;3.706;2024-01-30T05:42:08;101476.34;;;8.62;71.55
32735;BME280;19112;51.076;3.706;2024-01-30T05:44:35;102127.47;;;12.19;71.88
32735;BME280;19112;51.076;3.706;2024-01-30T05:47:02;102185.81;;;12.46;72.11
32735;BME280;19112;51.076;3.706;2024-01-30T05:49:29;101856.69;;;10.92;71.78
32735;BME280;19112;51.076;3.706;2024-01-30T05:51:56;102259.78;;;13.44;71.95
32735;BME280;19112;51.076;3.706;2024-01-30T05:54:22;101954.44;;;11.58;71.69
32735;BME280;19112;51.076;3.706;2024-01-30T05:56:48;101563.91;;;9.37;71.23
32735;BME280;19112;51.076;3.706;2024-01-30T05:59:14;101495.72;;;9.00;71.14
32735;BME280;19112;51.076;3.706;2024-01-30T06:01:46;101860.53;;;11.18;71.33
32735;BME280;19112;51.076;3.706;2024-01-30T06:04:13;102191.00;;;12.81;71.39
32735;BME280;19112;51.076;3.706;2024-01-30T06:06:39;102232.13;;;13.36;71.07
32735;BME280;19112;51.076;3.706;2024-01-30T06:09:05;102406.22;;;14.33;71.12
32735;BME280;19112;51.076;3.706;2024-01-30T06:11:32;102304.31;;;13.77;70.95
32735;BME280;19112;51.076;3.706;2024-01-30T06:13:58;102224.84;;;12.92;70.83
32735;BME280;19112;51.076;3.706;2024-01-30T06:16:25;102236.72;;;13.40;70.85
32735;BME280;19112;51.076;3.706;2024-01-30T06:18:55;102342.84;;;13.73;70.70
32735;BME280;19112;51.076;3.706;2024-01-30T06:21:24;102022.44;;;11.68;70.70
32735;BME280;19112;51.076;3.706;2024-01-30T06:23:50;102091.69;;;12.22;70.36
32735;BME280;19112;51.076;3.706;2024-01-30T06:26:17;101982.53;;;11.59;70.39
32735;BME280;19112;51.076;3.706;2024-01-30T06:28:43;101590.88;;;9.34;70.25
32735;BME280;19112;51.076;3.706;2024-01-30T06:31:10;102372.03;;;14.16;70.56
32735;BME280;19112;51.076;3.706;2024-01-30T06:33:35;102049.50;;;12.21;70.27
32735;BME280;19112;51.076;3.706;2024-01-30T06:36:02;102192.81;;;13.21;70.48
32735;BME280;19112;51.076;3.706;2024-01-30T06:38:29;102265.03;;;13.63;70.27
32735;BME280;19112;51.076;3.706;2024-01-30T06:40:55;102370.88;;;14.10;70.32
32735;BME280;19112;51.076;3.706;2024-01-30T06:43:22;101801.47;;;10.73;70.07
32735;BME280;19112;51.076;3.706;2024-01-30T06:45:48;102173.66;;;12.87;70.24
32735;BME280;19112;51.076;3.706;2024-01-30T06:48:14;101597.06;;;9.70;69.97
32735;BME280;19112;51.076;3.706;2024-01-30T06:50:40;102145.72;;;12.90;70.51
32735;BME280;19112;51.076;3.706;2024-01-30T06:53:05;102190.03;;;12.79;70.53
32735;BME280;19112;51.076;3.706;2024-01-30T06:55:32;101254.31;;;7.66;70.21
32735;BME280;19112;51.076;3.706;2024-01-30T06:57:59;102129.47;;;12.81;70.52
32735;BME280;19112;51.076;3.706;2024-01-30T07:00:25;102165.75;;;13.06;70.55
32735;BME280;19112;51.076;3.706;2024-01-30T07:02:51;102286.97;;;13.62;70.71
32735;BME280;19112;51.076;3.706;2024-01-30T07:05:17;101441.59;;;8.82;70.53
32735;BME280;19112;51.076;3.706;2024-01-30T07:07:43;102198.41;;;13.09;70.80
32735;BME280;19112;51.076;3.706;2024-01-30T07:10:10;101905.31;;;11.39;70.78
32735;BME280;19112;51.076;3.706;2024-01-30T07:12:35;102144.56;;;12.46;71.09
32735;BME280;19112;51.076;3.706;2024-01-30T07:15:01;101596.38;;;9.57;70.85
32735;BME280;19112;51.076;3.706;2024-01-30T07:17:29;102071.16;;;12.35;70.85
32735;BME280;19112;51.076;3.706;2024-01-30T07:19:55;102320.31;;;13.60;71.00
32735;BME280;19112;51.076;3.706;2024-01-30T07:22:21;102284.09;;;13.58;70.93
32735;BME280;19112;51.076;3.706;2024-01-30T07:24:47;102009.50;;;12.10;70.68
32735;BME280;19112;51.076;3.706;2024-01-30T07:27:15;101995.78;;;11.80;70.73
32735;BME280;19112;51.076;3.706;2024-01-30T07:29:43;101285.84;;;8.03;70.60
32735;BME280;19112;51.076;3.706;2024-01-30T07:32:10;101536.97;;;9.39;70.68
32735;BME280;19112;51.076;3.706;2024-01-30T07:34:36;102483.69;;;14.51;71.22
32735;BME280;19112;51.076;3.706;2024-01-30T07:37:02;101751.44;;;10.52;70.80
32735;BME280;19112;51.076;3.706;2024-01-30T07:39:28;102366.53;;;13.91;70.93
32735;BME280;19112;51.076;3.706;2024-01-30T07:41:54;102029.47;;;12.05;70.39
32735;BME280;19112;51.076;3.706;2024-01-30T07:44:20;102102.63;;;12.70;70.60
32735;BME280;19112;51.076;3.706;2024-01-30T07:46:48;102028.97;;;12.14;70.40
32735;BME280;19112;51.076;3.706;2024-01-30T07:49:14;102007.28;;;12.19;70.36
32735;BME280;19112;51.076;3.706;2024-01-30T07:51:40;101644.91;;;10.02;70.14
32735;BME280;19112;51.076;3.706;2024-01-30T07:54:06;102154.16;;;12.83;70.28
32735;BME280;19112;51.076;3.706;2024-01-30T07:56:32;101912.59;;;11.45;70.05
32735;BME280;19112;51.076;3.706;2024-01-30T07:58:58;102035.75;;;12.28;70.31
32735;BME280;19112;51.076;3.706;2024-01-30T08:01:23;102112.84;;;12.63;70.19
32735;BME280;19112;51.076;3.706;2024-01-30T08:03:49;102295.13;;;13.88;70.20
32735;BME280;19112;51.076;3.706;2024-01-30T08:06:15;102261.84;;;13.51;70.39
32735;BME280;19112;51.076;3.706;2024-01-30T08:08:41;102193.84;;;13.25;70.78
32735;BME280;19112;51.076;3.706;2024-01-30T08:11:07;101484.63;;;9.05;70.43
32735;BME280;19112;51.076;3.706;2024-01-30T08:13:33;102403.72;;;14.16;70.67
32735;BME280;19112;51.076;3.706;2024-01-30T08:15:59;101828.09;;;11.18;70.22
32735;BME280;19112;51.076;3.706;2024-01-30T08:18:25;102424.25;;;14.62;70.51
32735;BME280;19112;51.076;3.706;2024-01-30T08:20:50;101912.69;;;11.66;70.19
32735;BME280;19112;51.076;3.706;2024-01-30T08:23:16;102189.16;;;13.19;70.31
32735;BME280;19112;51.076;3.706;2024-01-30T08:25:42;101980.56;;;11.55;69.92
32735;BME280;19112;51.076;3.706;2024-01-30T08:28:08;102314.66;;;13.72;70.25
32735;BME280;19112;51.076;3.706;2024-01-30T08:30:34;102333.13;;;13.72;70.51
32735;BME280;19112;51.076;3.706;2024-01-30T08:32:59;101737.56;;;10.19;70.06
32735;BME280;19112;51.076;3.706;2024-01-30T08:35:25;101741.81;;;10.17;70.17
32735;BME280;19112;51.076;3.706;2024-01-30T08:37:51;102177.88;;;13.02;70.35
32735;BME280;19112;51.076;3.706;2024-01-30T08:40:17;102618.00;;;15.00;70.35
32735;BME280;19112;51.076;3.706;2024-01-30T08:42:43;101859.94;;;10.87;70.47
32735;BME280;19112;51.076;3.706;2024-01-30T08:45:09;101827.09;;;10.96;70.72
32735;BME280;19112;51.076;3.706;2024-01-30T08:47:35;101695.13;;;10.10;70.45
32735;BME280;19112;51.076;3.706;2024-01-30T08:50:01;101697.97;;;9.96;70.43
32735;BME280;19112;51.076;3.706;2024-01-30T08:52:27;102319.22;;;13.96;70.50
32735;BME280;19112;51.076;3.706;2024-01-30T08:54:53;102259.25;;;13.32;70.52
32735;BME280;19112;51.076;3.706;2024-01-30T08:57:20;101854.63;;;11.05;70.52
32735;BME280;19112;51.076;3.706;2024-01-30T08:59:46;101861.47;;;11.19;70.68
32735;BME280;19112;51.076;3.706;2024-01-30T09:02:13;102059.19;;;12.41;70.65
32735;BME280;19112;51.076;3.706;2024-01-30T09:04:42;102403.72;;;14.16;70.45
32735;BME280;19112;51.076;3.706;2024-01-30T09:07:09;102249.81;;;13.37;70.44
32735;BME280;19112;51.076;3.706;2024-01-30T09:09:37;102404.25;;;14.08;70.00
32735;BME280;19112;51.076;3.706;2024-01-30T09:12:03;102575.88;;;15.26;69.95
32735;BME280;19112;51.076;3.706;2024-01-30T09:14:33;102514.00;;;14.80;69.85
32735;BME280;19112;51.076;3.706;2024-01-30T09:16:59;101859.78;;;11.21;69.44
32735;BME280;19112;51.076;3.706;2024-01-30T09:19:26;102058.00;;;12.15;69.58
32735;BME280;19112;51.076;3.706;2024-01-30T09:21:53;101784.97;;;10.58;69.22
32735;BME280;19112;51.076;3.706;2024-01-30T09:24:19;102402.72;;;14.13;69.70
32735;BME280;19112;51.076;3.706;2024-01-30T09:26:44;102082.59;;;12.16;69.39
32735;BME280;19112;51.076;3.706;2024-01-30T09:29:10;102287.97;;;13.45;69.11
32735;BME280;19112;51.076;3.706;2024-01-30T09:31:38;101902.59;;;11.18;68.07
32735;BME280;19112;51.076;3.706;2024-01-30T09:34:05;102377.94;;;13.71;67.14
32735;BME280;19112;51.076;3.706;2024-01-30T09:36:32;102470.06;;;14.03;66.12
32735;BME280;19112;51.076;3.706;2024-01-30T09:39:00;101544.31;;;9.11;64.66
32735;BME280;19112;51.076;3.706;2024-01-30T09:41:28;101777.00;;;10.20;64.08
32735;BME280;19112;51.076;3.706;2024-01-30T09:43:59;102371.19;;;13.58;63.84
32735;BME280;19112;51.076;3.706;2024-01-30T09:46:27;102328.16;;;13.02;63.15
32735;BME280;19112;51.076;3.706;2024-01-30T09:48:55;101695.56;;;9.83;63.29
32735;BME280;19112;51.076;3.706;2024-01-30T09:51:23;101782.22;;;10.03;63.49
32735;BME280;19112;51.076;3.706;2024-01-30T09:53:51;102742.44;;;14.64;63.40
32735;BME280;19112;51.076;3.706;2024-01-30T09:56:18;102108.31;;;11.32;63.29
32735;BME280;19112;51.076;3.706;2024-01-30T09:58:46;102306.84;;;12.61;63.35
32735;BME280;19112;51.076;3.706;2024-01-30T10:01:12;101927.41;;;10.03;63.47
32735;BME280;19112;51.076;3.706;2024-01-30T10:03:38;102182.28;;;11.22;63.25
32735;BME280;19112;51.076;3.706;2024-01-30T10:06:04;102541.97;;;13.07;63.89
32735;BME280;19112;51.076;3.706;2024-01-30T10:08:30;102276.19;;;11.75;63.57
32735;BME280;19112;51.076;3.706;2024-01-30T10:10:56;102663.44;;;14.33;63.70
32735;BME280;19112;51.076;3.706;2024-01-30T10:13:22;101986.31;;;10.59;63.21
32735;BME280;19112;51.076;3.706;2024-01-30T10:15:48;102205.59;;;11.83;63.19
32735;BME280;19112;51.076;3.706;2024-01-30T10:18:14;102423.66;;;13.15;63.29
32735;BME280;19112;51.076;3.706;2024-01-30T10:20:40;102557.06;;;13.81;63.29
32735;BME280;19112;51.076;3.706;2024-01-30T10:23:06;102234.03;;;11.73;62.88
32735;BME280;19112;51.076;3.706;2024-01-30T10:25:32;102137.66;;;11.23;63.26
32735;BME280;19112;51.076;3.706;2024-01-30T10:28:01;102513.81;;;13.79;63.94
32735;BME280;19112;51.076;3.706;2024-01-30T10:30:27;102513.06;;;13.44;64.21
32735;BME280;19112;51.076;3.706;2024-01-30T10:32:54;102414.56;;;13.26;63.41
32735;BME280;19112;51.076;3.706;2024-01-30T10:35:20;101703.25;;;9.28;63.53
32735;BME280;19112;51.076;3.706;2024-01-30T10:37:49;102008.72;;;11.02;63.62
32735;BME280;19112;51.076;3.706;2024-01-30T10:40:16;102460.00;;;13.38;63.27
32735;BME280;19112;51.076;3.706;2024-01-30T10:42:44;102060.13;;;10.97;63.29
32735;BME280;19112;51.076;3.706;2024-01-30T10:45:13;102312.31;;;12.65;63.50
32735;BME280;19112;51.076;3.706;2024-01-30T10:47:54;102679.69;;;14.80;63.61
32735;BME280;19112;51.076;3.706;2024-01-30T10:50:27;102239.41;;;12.46;63.25
32735;BME280;19112;51.076;3.706;2024-01-30T10:52:55;102031.03;;;11.46;62.78
32735;BME280;19112;51.076;3.706;2024-01-30T10:55:22;101957.69;;;10.81;62.48
32735;BME280;19112;51.076;3.706;2024-01-30T10:57:49;101755.53;;;9.93;61.91
32735;BME280;19112;51.076;3.706;2024-01-30T11:00:16;102295.63;;;13.02;62.12
32735;BME280;19112;51.076;3.706;2024-01-30T11:02:46;102449.28;;;14.11;60.78
32735;BME280;19112;51.076;3.706;2024-01-30T11:05:13;101767.44;;;10.22;60.13
32735;BME280;19112;51.076;3.706;2024-01-30T11:07:41;102382.69;;;13.58;59.69
32735;BME280;19112;51.076;3.706;2024-01-30T11:10:07;102709.09;;;15.45;59.62
32735;BME280;19112;51.076;3.706;2024-01-30T11:12:39;101703.81;;;9.91;59.38
32735;BME280;19112;51.076;3.706;2024-01-30T11:15:15;101745.50;;;10.03;58.91
32735;BME280;19112;51.076;3.706;2024-01-30T11:20:27;102687.78;;;15.23;59.62
32735;BME280;19112;51.076;3.706;2024-01-30T11:22:58;102448.38;;;13.72;59.40
32735;BME280;19112;51.076;3.706;2024-01-30T11:25:25;101927.63;;;11.10;59.14
32735;BME280;19112;51.076;3.706;2024-01-30T11:27:53;101888.16;;;10.22;59.08
32735;BME280;19112;51.076;3.706;2024-01-30T11:30:26;102685.81;;;15.38;59.01
32735;BME280;19112;51.076;3.706;2024-01-30T11:33:09;101844.41;;;10.56;58.43
32735;BME280;19112;51.076;3.706;2024-01-30T11:35:39;101783.00;;;10.18;58.34
32735;BME280;19112;51.076;3.706;2024-01-30T11:38:10;101995.13;;;10.93;58.67
32735;BME280;19112;51.076;3.706;2024-01-30T11:40:38;101860.94;;;10.03;58.33
32735;BME280;19112;51.076;3.706;2024-01-30T11:43:06;102225.16;;;12.61;58.42
32735;BME280;19112;51.076;3.706;2024-01-30T11:45:34;102109.31;;;11.52;58.83
32735;BME280;19112;51.076;3.706;2024-01-30T11:48:00;101855.94;;;10.41;59.28
32735;BME280;19112;51.076;3.706;2024-01-30T11:50:33;102602.16;;;14.23;59.64
32735;BME280;19112;51.076;3.706;2024-01-30T11:53:00;102196.03;;;12.20;59.71
32735;BME280;19112;51.076;3.706;2024-01-30T11:55:26;102463.16;;;13.49;59.64
32735;BME280;19112;51.076;3.706;2024-01-30T11:57:56;102239.72;;;12.17;59.71
32735;BME280;19112;51.076;3.706;2024-01-30T12:00:22;102123.44;;;11.36;60.15
32735;BME280;19112;51.076;3.706;2024-01-30T12:02:53;102414.88;;;13.32;60.81
32735;BME280;19112;51.076;3.706;2024-01-30T12:05:28;102372.69;;;12.61;60.19
32735;BME280;19112;51.076;3.706;2024-01-30T12:07:54;102170.25;;;11.95;60.43
32735;BME280;19112;51.076;3.706;2024-01-30T12:10:21;102191.75;;;11.70;60.19
32735;BME280;19112;51.076;3.706;2024-01-30T12:12:50;102348.47;;;12.68;59.63
32735;BME280;19112;51.076;3.706;2024-01-30T12:15:18;102562.78;;;13.72;59.84
32735;BME280;19112;51.076;3.706;2024-01-30T12:17:44;101930.38;;;9.93;60.07
32735;BME280;19112;51.076;3.706;2024-01-30T12:20:17;102484.44;;;12.64;60.55
32735;BME280;19112;51.076;3.706;2024-01-30T12:22:45;101984.84;;;9.66;60.60
32735;BME280;19112;51.076;3.706;2024-01-30T12:25:19;102779.09;;;14.03;60.69
32735;BME280;19112;51.076;3.706;2024-01-30T12:27:50;102283.72;;;11.18;60.71
32735;BME280;19112;51.076;3.706;2024-01-30T12:30:18;102066.34;;;9.85;60.37
32735;BME280;19112;51.076;3.706;2024-01-30T12:32:46;102535.13;;;11.93;60.79
32735;BME280;19112;51.076;3.706;2024-01-30T12:35:18;102079.19;;;9.50;60.47
32735;BME280;19112;51.076;3.706;2024-01-30T12:37:46;102166.47;;;10.55;60.45
32735;BME280;19112;51.076;3.706;2024-01-30T12:40:14;102283.63;;;10.84;60.41
32735;BME280;19112;51.076;3.706;2024-01-30T12:42:41;102356.59;;;11.05;60.22
32735;BME280;19112;51.076;3.706;2024-01-30T12:45:13;102097.47;;;9.79;60.17
32735;BME280;19112;51.076;3.706;2024-01-30T12:47:39;101970.84;;;9.03;60.31
32735;BME280;19112;51.076;3.706;2024-01-30T12:50:05;102710.53;;;13.20;60.27
32735;BME280;19112;51.076;3.706;2024-01-30T12:52:31;102445.91;;;11.50;60.22
32735;BME280;19112;51.076;3.706;2024-01-30T12:54:57;102746.50;;;12.85;60.27